Time;durP1;ratioP1;P1;durP2;ratioP2;P2;SDS_P1;SDS_P2;PMS_P1;PMS_P2;Temp;Humidity;BMP_temperature;BMP_pressure;BME280_temperature;BME280_humidity;BME280_pressure;Samples;Min_cycle;Max_cycle;Signal;HPM_P1;HPM_P2
2023/12/21 00:01:43;;;;;;;65.82;59.92;;;;;;;;;;4196424;28;20036;-59
2023/12/21 00:03:44;;;;;;;60.17;55.00;;;;;;;;;;4197239;28;20036;-59
2023/12/21 00:05:46;;;;;;;69.37;62.77;;;;;;;;;;4197188;28;20123;-59
2023/12/21 00:07:48;;;;;;;68.03;61.53;;;;;;;;;;4197268;28;20044;-59
2023/12/21 00:09:50;;;;;;;57.50;52.28;;;;;;;;;;4213229;28;20335;-59
2023/12/21 00:11:51;;;;;;;64.50;57.70;;;;;;;;;;4213851;28;20102;-60
2023/12/21 00:13:53;;;;;;;65.25;58.85;;;;;;;;;;4213840;28;20089;-59
2023/12/21 00:15:55;;;;;;;58.42;53.33;;;;;;;;;;4212499;28;20365;-60
2023/12/21 00:17:56;;;;;;;65.57;59.03;;;;;;;;;;4213849;28;20055;-60
2023/12/21 00:19:58;;;;;;;63.08;57.80;;;;;;;;;;4213828;28;20036;-60
2023/12/21 00:22:00;;;;;;;61.80;56.30;;;;;;;;;;4213728;28;20433;-60
2023/12/21 00:24:02;;;;;;;63.17;57.27;;;;;;;;;;4207910;28;20040;-60
2023/12/21 00:26:04;;;;;;;60.03;55.05;;;;;;;;;;4197087;28;20051;-60
2023/12/21 00:28:06;;;;;;;63.23;57.60;;;;;;;;;;4195897;28;20048;-60
2023/12/21 00:30:07;;;;;;;61.10;55.87;;;;;;;;;;4197041;28;20064;-60
2023/12/21 00:32:09;;;;;;;63.70;58.72;;;;;;;;;;4196891;28;20328;-60
2023/12/21 00:34:14;;;;;;;57.85;53.00;;;;;;;;;;4196939;28;20086;-60
2023/12/21 00:36:16;;;;;;;58.80;53.73;;;;;;;;;;4196996;28;20094;-60
2023/12/21 00:38:18;;;;;;;57.58;52.50;;;;;;;;;;4196935;28;20298;-60
2023/12/21 00:40:19;;;;;;;62.42;56.83;;;;;;;;;;4196878;28;20143;-60
2023/12/21 00:42:21;;;;;;;62.13;56.30;;;;;;;;;;4197029;28;20587;-60
2023/12/21 00:44:23;;;;;;;58.93;54.07;;;;;;;;;;4198132;28;20044;-60
2023/12/21 00:46:24;;;;;;;58.95;53.95;;;;;;;;;;4200436;28;20044;-60
2023/12/21 00:48:26;;;;;;;60.50;55.42;;;;;;;;;;4198746;28;20067;-60
2023/12/21 00:50:28;;;;;;;58.92;53.88;;;;;;;;;;4199879;28;20040;-60
2023/12/21 00:52:29;;;;;;;64.43;59.13;;;;;;;;;;4206851;28;20036;-60
2023/12/21 00:54:31;;;;;;;61.77;55.87;;;;;;;;;;4203652;28;20106;-60
2023/12/21 00:56:33;;;;;;;59.50;54.13;;;;;;;;;;4200020;28;20043;-60
2023/12/21 00:58:34;;;;;;;62.83;57.28;;;;;;;;;;4200105;28;20428;-60
2023/12/21 01:00:36;;;;;;;62.08;56.75;;;;;;;;;;4199621;28;20033;-60
2023/12/21 01:02:38;;;;;;;60.60;55.40;;;;;;;;;;4199929;28;20055;-60
2023/12/21 01:04:40;;;;;;;64.20;58.65;;;;;;;;;;4200109;28;20041;-60
2023/12/21 01:06:43;;;;;;;59.13;53.97;;;;;;;;;;4200184;28;20051;-60
2023/12/21 01:08:44;;;;;;;59.83;54.65;;;;;;;;;;4206546;28;20044;-60
2023/12/21 01:10:46;;;;;;;62.65;56.88;;;;;;;;;;4216570;28;20048;-60
2023/12/21 01:12:48;;;;;;;62.17;56.47;;;;;;;;;;4216554;28;20044;-60
2023/12/21 01:14:49;;;;;;;59.22;54.08;;;;;;;;;;4216692;28;20062;-60
2023/12/21 01:16:51;;;;;;;61.90;56.30;;;;;;;;;;4216533;28;20444;-60
2023/12/21 01:18:53;;;;;;;65.03;59.00;;;;;;;;;;4216659;28;20044;-60
2023/12/21 01:20:55;;;;;;;64.20;58.43;;;;;;;;;;4204817;28;20279;-60
2023/12/21 01:22:56;;;;;;;52.00;48.13;;;;;;;;;;4199077;28;20037;-59
2023/12/21 01:24:58;;;;;;;52.08;47.67;;;;;;;;;;4199548;28;20055;-60
2023/12/21 01:27:00;;;;;;;48.80;45.35;;;;;;;;;;4198520;28;20075;-60
2023/12/21 01:29:01;;;;;;;44.85;42.05;;;;;;;;;;4199704;28;20115;-60
2023/12/21 01:31:03;;;;;;;45.25;42.60;;;;;;;;;;4199459;28;20068;-59
2023/12/21 01:33:05;;;;;;;46.50;43.15;;;;;;;;;;4199372;28;20093;-60
2023/12/21 01:35:07;;;;;;;45.15;42.53;;;;;;;;;;4199682;28;20090;-60
2023/12/21 01:37:09;;;;;;;;;;;;;;;;;;4199727;28;20432;-60
2023/12/21 01:39:11;;;;;;;44.78;41.97;;;;;;;;;;4199502;28;20003;-60
2023/12/21 01:41:12;;;;;;;48.00;44.45;;;;;;;;;;4199269;28;20040;-59
2023/12/21 01:43:14;;;;;;;53.10;49.63;;;;;;;;;;4197916;28;20494;-60
2023/12/21 01:45:16;;;;;;;48.45;44.88;;;;;;;;;;4199405;28;20044;-60
2023/12/21 01:47:17;;;;;;;50.75;47.22;;;;;;;;;;4199250;28;20492;-60
2023/12/21 01:49:19;;;;;;;53.13;48.75;;;;;;;;;;4198403;28;20049;-60
2023/12/21 01:51:21;;;;;;;50.28;46.88;;;;;;;;;;4199052;28;20079;-60
2023/12/21 01:53:23;;;;;;;49.38;45.92;;;;;;;;;;4207924;28;20041;-60
2023/12/21 01:55:25;;;;;;;51.22;47.38;;;;;;;;;;4197455;28;20116;-60
2023/12/21 01:57:27;;;;;;;56.35;51.88;;;;;;;;;;4197545;28;20032;-60
2023/12/21 01:59:29;;;;;;;55.75;51.42;;;;;;;;;;4196550;28;20041;-59
2023/12/21 02:03:33;;;;;;;53.05;48.85;;;;;;;;;;4146838;28;20124;-57
2023/12/21 02:05:35;;;;;;;53.88;49.88;;;;;;;;;;4149276;28;20121;-58
2023/12/21 02:07:37;;;;;;;48.50;45.38;;;;;;;;;;4149402;28;20409;-58
2023/12/21 02:09:38;;;;;;;57.30;52.83;;;;;;;;;;4163360;28;20095;-58
2023/12/21 02:11:40;;;;;;;53.40;49.58;;;;;;;;;;4165707;28;20037;-58
2023/12/21 02:13:42;;;;;;;57.70;52.53;;;;;;;;;;4165722;28;20045;-58
2023/12/21 02:15:44;;;;;;;50.85;47.47;;;;;;;;;;4165663;28;20054;-59
2023/12/21 02:17:47;;;;;;;53.38;49.22;;;;;;;;;;4149623;28;20053;-59
2023/12/21 02:19:48;;;;;;;58.25;53.90;;;;;;;;;;4149101;28;20509;-59
2023/12/21 02:21:51;;;;;;;58.78;54.10;;;;;;;;;;4149293;28;20132;-58
2023/12/21 02:23:53;;;;;;;57.03;52.42;;;;;;;;;;4149251;28;20038;-58
2023/12/21 02:25:55;;;;;;;57.22;52.63;;;;;;;;;;4149129;28;20053;-58
2023/12/21 02:27:56;;;;;;;54.03;49.72;;;;;;;;;;4149150;28;20517;-59
2023/12/21 02:29:58;;;;;;;56.70;52.67;;;;;;;;;;4149460;28;20053;-57
2023/12/21 02:32:00;;;;;;;53.15;49.40;;;;;;;;;;4149178;28;20120;-58
2023/12/21 02:34:02;;;;;;;54.50;50.63;;;;;;;;;;4149162;28;20042;-58
2023/12/21 02:36:04;;;;;;;55.38;51.15;;;;;;;;;;4148980;28;20408;-58
2023/12/21 02:38:06;;;;;;;56.13;52.03;;;;;;;;;;4148972;28;20129;-59
2023/12/21 02:40:08;;;;;;;52.55;49.13;;;;;;;;;;4148911;28;20041;-57
2023/12/21 02:42:09;;;;;;;52.83;49.17;;;;;;;;;;4149077;28;20388;-58
2023/12/21 02:44:11;;;;;;;48.22;45.17;;;;;;;;;;4148798;28;20046;-58
2023/12/21 02:46:12;;;;;;;42.67;39.83;;;;;;;;;;4148823;28;20117;-56
2023/12/21 02:48:14;;;;;;;42.37;40.23;;;;;;;;;;4148918;28;20103;-58
2023/12/21 02:50:16;;;;;;;42.45;40.17;;;;;;;;;;4148805;28;20096;-58
2023/12/21 02:52:17;;;;;;;40.10;37.90;;;;;;;;;;4153669;28;20037;-58
2023/12/21 02:54:19;;;;;;;44.25;41.85;;;;;;;;;;4153748;28;20308;-58
2023/12/21 02:56:21;;;;;;;42.30;40.15;;;;;;;;;;4137156;28;20129;-58
2023/12/21 02:58:23;;;;;;;41.63;39.43;;;;;;;;;;4148714;28;20085;-58
2023/12/21 03:00:25;;;;;;;39.97;38.00;;;;;;;;;;4130930;28;20038;-58
2023/12/21 03:02:27;;;;;;;44.60;42.25;;;;;;;;;;4148401;28;20077;-59
2023/12/21 03:04:28;;;;;;;42.50;40.50;;;;;;;;;;4148844;28;20034;-57
2023/12/21 03:06:30;;;;;;;43.05;40.75;;;;;;;;;;4148591;28;20048;-58
2023/12/21 03:08:32;;;;;;;41.40;39.42;;;;;;;;;;4153187;28;20492;-58
2023/12/21 03:10:33;;;;;;;41.58;39.60;;;;;;;;;;4164924;28;20049;-59
2023/12/21 03:12:35;;;;;;;38.53;36.67;;;;;;;;;;4160479;28;20088;-57
2023/12/21 03:14:36;;;;;;;41.88;39.50;;;;;;;;;;4148510;28;20084;-57
2023/12/21 03:16:38;;;;;;;42.28;40.03;;;;;;;;;;4148479;28;20069;-57
2023/12/21 03:18:40;;;;;;;44.40;41.67;;;;;;;;;;4148376;28;20038;-57
2023/12/21 03:20:41;;;;;;;47.42;44.90;;;;;;;;;;4130792;28;20599;-56
2023/12/21 03:22:43;;;;;;;49.13;46.03;;;;;;;;;;4148325;28;20498;-57
2023/12/21 03:24:45;;;;;;;47.95;45.00;;;;;;;;;;4148278;28;20042;-56
2023/12/21 03:26:46;;;;;;;49.65;46.33;;;;;;;;;;4148271;28;20070;-56
2023/12/21 03:28:48;;;;;;;48.97;45.80;;;;;;;;;;4148477;28;20034;-57
2023/12/21 03:30:50;;;;;;;49.03;45.63;;;;;;;;;;4148169;28;20038;-56
2023/12/21 03:32:51;;;;;;;49.92;46.67;;;;;;;;;;4148155;28;20505;-57
2023/12/21 03:34:53;;;;;;;49.97;46.67;;;;;;;;;;4148336;28;20042;-57
2023/12/21 03:36:55;;;;;;;47.15;44.03;;;;;;;;;;4148308;28;20372;-57
2023/12/21 03:38:59;;;;;;;46.42;43.22;;;;;;;;;;4148001;28;20044;-57
2023/12/21 03:41:00;;;;;;;50.50;47.42;;;;;;;;;;4147874;28;20041;-57
2023/12/21 03:43:02;;;;;;;50.90;47.72;;;;;;;;;;4148328;28;20046;-56
2023/12/21 03:45:04;;;;;;;48.57;45.47;;;;;;;;;;4148061;28;20049;-56
2023/12/21 03:47:06;;;;;;;48.50;45.55;;;;;;;;;;4147985;28;20120;-56
2023/12/21 03:49:07;;;;;;;50.20;46.97;;;;;;;;;;4147817;28;20081;-56
2023/12/21 03:51:09;;;;;;;52.38;48.78;;;;;;;;;;4147824;28;20077;-57
2023/12/21 03:53:11;;;;;;;47.65;45.08;;;;;;;;;;4147758;28;20067;-56
2023/12/21 03:55:13;;;;;;;52.23;48.50;;;;;;;;;;4148070;28;20137;-56
2023/12/21 03:57:14;;;;;;;51.63;48.55;;;;;;;;;;4148063;28;20041;-56
2023/12/21 03:59:16;;;;;;;50.25;47.15;;;;;;;;;;4147882;28;20121;-56
2023/12/21 04:01:24;;;;;;;47.13;44.00;;;;;;;;;;4147278;28;20096;-57
2023/12/21 04:03:26;;;;;;;51.60;48.33;;;;;;;;;;4147655;28;20046;-56
2023/12/21 04:05:28;;;;;;;48.87;45.53;;;;;;;;;;4147802;28;20093;-57
2023/12/21 04:07:29;;;;;;;48.35;45.45;;;;;;;;;;4147788;28;20494;-57
2023/12/21 04:09:31;;;;;;;51.20;48.00;;;;;;;;;;4150725;28;20046;-56
2023/12/21 04:11:33;;;;;;;48.95;45.88;;;;;;;;;;4147872;28;20053;-57
2023/12/21 04:13:34;;;;;;;48.47;45.08;;;;;;;;;;4147778;28;20054;-56
2023/12/21 04:15:36;;;;;;;48.80;45.83;;;;;;;;;;4147641;28;20405;-56
2023/12/21 04:17:38;;;;;;;50.72;47.35;;;;;;;;;;4147446;28;20077;-57
2023/12/21 04:19:39;;;;;;;48.90;45.90;;;;;;;;;;4147222;28;20037;-56
2023/12/21 04:21:41;;;;;;;49.97;46.92;;;;;;;;;;4147618;28;20819;-57
2023/12/21 04:23:44;;;;;;;47.00;44.15;;;;;;;;;;4148068;28;20054;-58
2023/12/21 04:25:45;;;;;;;49.97;46.90;;;;;;;;;;4147617;28;20073;-58
2023/12/21 04:27:47;;;;;;;49.67;46.17;;;;;;;;;;4147631;28;20054;-59
2023/12/21 04:29:48;;;;;;;47.13;44.38;;;;;;;;;;4147600;28;20045;-58
2023/12/21 04:31:50;;;;;;;51.72;48.30;;;;;;;;;;4147867;28;20049;-58
2023/12/21 04:33:52;;;;;;;49.72;46.92;;;;;;;;;;4147448;28;20046;-58
2023/12/21 04:35:54;;;;;;;43.88;41.17;;;;;;;;;;4147290;28;20038;-57
2023/12/21 04:37:56;;;;;;;48.72;45.53;;;;;;;;;;4147436;28;20041;-59
2023/12/21 04:39:57;;;;;;;48.20;45.13;;;;;;;;;;4147510;28;20038;-58
2023/12/21 04:41:59;;;;;;;49.57;46.53;;;;;;;;;;4147492;28;20042;-58
2023/12/21 04:44:01;;;;;;;49.28;45.92;;;;;;;;;;4147449;28;20050;-58
2023/12/21 04:46:05;;;;;;;45.60;42.83;;;;;;;;;;4147523;28;20402;-58
2023/12/21 04:48:07;;;;;;;49.78;46.30;;;;;;;;;;4147396;28;20050;-58
2023/12/21 04:50:09;;;;;;;50.67;47.13;;;;;;;;;;4147339;28;20048;-58
2023/12/21 04:52:10;;;;;;;48.55;45.15;;;;;;;;;;4147416;28;20045;-58
2023/12/21 04:54:13;;;;;;;47.50;44.60;;;;;;;;;;4147414;28;20122;-58
2023/12/21 04:56:15;;;;;;;49.40;46.50;;;;;;;;;;4147377;28;20497;-58
2023/12/21 04:58:18;;;;;;;45.97;43.45;;;;;;;;;;4147590;28;20041;-58
2023/12/21 05:00:20;;;;;;;43.42;40.83;;;;;;;;;;4146971;28;20123;-56
2023/12/21 05:02:22;;;;;;;49.70;46.83;;;;;;;;;;4147137;28;20470;-58
2023/12/21 05:04:23;;;;;;;52.90;49.07;;;;;;;;;;4147218;28;20042;-57
2023/12/21 05:06:25;;;;;;;52.63;49.20;;;;;;;;;;4147262;28;20319;-58
2023/12/21 05:08:28;;;;;;;48.83;45.20;;;;;;;;;;4151419;28;20120;-58
2023/12/21 05:10:29;;;;;;;42.38;40.45;;;;;;;;;;4163609;28;20041;-58
2023/12/21 05:12:31;;;;;;;46.70;44.40;;;;;;;;;;4163495;28;20069;-57
2023/12/21 05:14:33;;;;;;;47.45;44.97;;;;;;;;;;4140324;28;20046;-58
2023/12/21 05:16:37;;;;;;;43.67;41.20;;;;;;;;;;4141633;28;20543;-58
2023/12/21 05:18:39;;;;;;;44.50;42.53;;;;;;;;;;4147086;28;20056;-59
2023/12/21 05:20:40;;;;;;;43.15;41.00;;;;;;;;;;4146573;28;20113;-57
2023/12/21 05:22:42;;;;;;;48.53;45.80;;;;;;;;;;4147044;28;20050;-58
2023/12/21 05:24:44;;;;;;;47.90;45.05;;;;;;;;;;4147317;28;20129;-58
2023/12/21 05:26:46;;;;;;;47.85;44.88;;;;;;;;;;4147158;28;20456;-57
2023/12/21 05:28:48;;;;;;;47.50;44.50;;;;;;;;;;4147097;28;20046;-58
2023/12/21 05:30:50;;;;;;;46.57;43.63;;;;;;;;;;4147161;28;20038;-56
2023/12/21 05:32:52;;;;;;;48.30;45.05;;;;;;;;;;4149814;28;20297;-58
2023/12/21 05:34:54;;;;;;;46.03;43.57;;;;;;;;;;4149886;28;20037;-57
2023/12/21 05:36:55;;;;;;;47.65;44.40;;;;;;;;;;4149939;28;20082;-57
2023/12/21 05:38:57;;;;;;;49.93;47.00;;;;;;;;;;4132516;28;20042;-57
2023/12/21 05:40:59;;;;;;;50.50;47.50;;;;;;;;;;4149601;28;20033;-57
2023/12/21 05:43:00;;;;;;;50.33;46.92;;;;;;;;;;4149951;28;20041;-57
2023/12/21 05:45:02;;;;;;;54.55;50.55;;;;;;;;;;4149866;28;20421;-57
2023/12/21 05:47:04;;;;;;;50.33;46.92;;;;;;;;;;4149875;28;20049;-57
2023/12/21 05:49:06;;;;;;;50.80;47.80;;;;;;;;;;4132592;28;20070;-57
2023/12/21 05:51:07;;;;;;;46.70;43.70;;;;;;;;;;4160854;28;20103;-55
2023/12/21 05:53:09;;;;;;;52.75;49.55;;;;;;;;;;4164471;28;20076;-56
2023/12/21 05:55:15;;;;;;;51.13;48.30;;;;;;;;;;4166136;28;20037;-57
2023/12/21 05:57:17;;;;;;;47.53;44.67;;;;;;;;;;4165976;28;20096;-56
2023/12/21 05:59:18;;;;;;;51.95;48.55;;;;;;;;;;4166098;28;20060;-57
2023/12/21 06:01:20;;;;;;;55.00;50.77;;;;;;;;;;4161119;28;20034;-57
2023/12/21 06:03:22;;;;;;;51.35;47.05;;;;;;;;;;4149428;28;20103;-56
2023/12/21 06:05:24;;;;;;;52.25;48.63;;;;;;;;;;4148147;28;20100;-57
2023/12/21 06:07:25;;;;;;;46.85;43.95;;;;;;;;;;4149515;28;20484;-56
2023/12/21 06:09:27;;;;;;;53.65;49.72;;;;;;;;;;4161699;28;20052;-56
2023/12/21 06:11:28;;;;;;;52.13;48.22;;;;;;;;;;4165606;28;20068;-56
2023/12/21 06:13:30;;;;;;;59.33;54.95;;;;;;;;;;4163601;28;20128;-56
2023/12/21 06:15:32;;;;;;;62.00;57.00;;;;;;;;;;4149130;28;20038;-57
2023/12/21 06:17:33;;;;;;;58.47;53.60;;;;;;;;;;4131720;28;20034;-57
2023/12/21 06:19:35;;;;;;;55.20;50.60;;;;;;;;;;4149168;28;20041;-58
2023/12/21 06:21:37;;;;;;;58.60;53.88;;;;;;;;;;4164222;28;20048;-58
2023/12/21 06:23:39;;;;;;;57.42;53.08;;;;;;;;;;4165705;28;20053;-59
2023/12/21 06:25:41;;;;;;;55.80;51.53;;;;;;;;;;4165595;28;20462;-59
2023/12/21 06:27:44;;;;;;;51.20;47.55;;;;;;;;;;4163315;28;20453;-58
2023/12/21 06:29:45;;;;;;;53.88;50.10;;;;;;;;;;4131616;28;20097;-58
2023/12/21 06:31:47;;;;;;;56.90;52.72;;;;;;;;;;4149319;28;20065;-59
2023/12/21 06:33:48;;;;;;;54.40;50.53;;;;;;;;;;4148958;28;20569;-59
2023/12/21 06:35:50;;;;;;;61.63;57.05;;;;;;;;;;4148996;28;20089;-58
2023/12/21 06:37:52;;;;;;;51.15;47.75;;;;;;;;;;4148951;28;20099;-59
2023/12/21 06:39:54;;;;;;;65.65;60.55;;;;;;;;;;4147869;28;20042;-59
2023/12/21 06:41:56;;;;;;;63.95;58.83;;;;;;;;;;4147878;28;20120;-59
2023/12/21 06:43:57;;;;;;;72.85;66.65;;;;;;;;;;4148182;28;20156;-59
2023/12/21 06:46:01;;;;;;;64.30;59.00;;;;;;;;;;4147910;28;20046;-59
2023/12/21 06:48:03;;;;;;;56.75;52.53;;;;;;;;;;4148720;28;20437;-58
2023/12/21 06:50:05;;;;;;;53.03;49.80;;;;;;;;;;4148515;28;20100;-59
2023/12/21 06:52:07;;;;;;;48.47;45.65;;;;;;;;;;4148658;28;20291;-59
2023/12/21 06:54:08;;;;;;;47.60;45.17;;;;;;;;;;4148700;28;20112;-58
2023/12/21 06:56:10;;;;;;;46.30;43.78;;;;;;;;;;4148737;28;20046;-59
2023/12/21 06:58:33;;;;;;;48.17;45.45;;;;;;;;;;4148537;28;20493;-59
2023/12/21 07:00:35;;;;;;;45.10;42.70;;;;;;;;;;4148617;28;20077;-58
2023/12/21 07:02:36;;;;;;;52.95;49.90;;;;;;;;;;4148441;28;20053;-59
2023/12/21 07:04:38;;;;;;;50.08;47.10;;;;;;;;;;4148558;28;20074;-58
2023/12/21 07:06:40;;;;;;;46.77;43.67;;;;;;;;;;4148414;28;20076;-58
2023/12/21 07:08:42;;;;;;;48.42;46.03;;;;;;;;;;4154528;28;20770;-58
2023/12/21 07:10:43;;;;;;;48.15;45.45;;;;;;;;;;4154863;28;20077;-59
2023/12/21 07:12:45;;;;;;;50.83;47.88;;;;;;;;;;4148387;28;20080;-59
2023/12/21 07:14:47;;;;;;;56.25;52.33;;;;;;;;;;4148177;28;20038;-59
2023/12/21 07:16:48;;;;;;;57.38;53.17;;;;;;;;;;4148228;28;20497;-59
2023/12/21 07:18:50;;;;;;;58.50;54.10;;;;;;;;;;4148531;28;20056;-59
2023/12/21 07:20:52;;;;;;;56.80;52.75;;;;;;;;;;4148311;28;20041;-58
2023/12/21 07:22:53;;;;;;;54.38;50.67;;;;;;;;;;4148250;28;20084;-58
2023/12/21 07:24:55;;;;;;;52.75;49.33;;;;;;;;;;4148017;28;20148;-59
2023/12/21 07:26:57;;;;;;;49.05;46.10;;;;;;;;;;4148172;28;20460;-58
2023/12/21 07:28:58;;;;;;;50.90;48.17;;;;;;;;;;4148191;28;20073;-59
2023/12/21 07:31:00;;;;;;;53.10;49.10;;;;;;;;;;4148128;28;20069;-59
2023/12/21 07:33:01;;;;;;;52.07;48.90;;;;;;;;;;4148419;28;20092;-58
2023/12/21 07:35:07;;;;;;;48.25;44.97;;;;;;;;;;4148107;28;20042;-58
2023/12/21 07:37:12;;;;;;;55.05;51.13;;;;;;;;;;4148208;28;20040;-59
2023/12/21 07:39:13;;;;;;;53.30;49.78;;;;;;;;;;4148095;28;20066;-58
2023/12/21 07:41:15;;;;;;;52.03;48.85;;;;;;;;;;4147948;28;20132;-58
2023/12/21 07:43:16;;;;;;;56.72;52.75;;;;;;;;;;4148083;28;20087;-59
2023/12/21 07:45:18;;;;;;;55.40;51.88;;;;;;;;;;4147972;28;20136;-58
2023/12/21 07:47:20;;;;;;;61.15;56.53;;;;;;;;;;4147914;28;20049;-59
2023/12/21 07:49:21;;;;;;;61.20;55.83;;;;;;;;;;4147990;28;20096;-59
2023/12/21 07:51:23;;;;;;;61.33;55.55;;;;;;;;;;4147847;28;20104;-59
2023/12/21 07:53:24;;;;;;;65.10;59.92;;;;;;;;;;4147238;28;20046;-58
2023/12/21 07:55:26;;;;;;;50.97;47.88;;;;;;;;;;4147838;28;20049;-62
2023/12/21 07:57:28;;;;;;;61.93;56.47;;;;;;;;;;4147976;28;20048;-61
2023/12/21 07:59:30;;;;;;;60.97;55.42;;;;;;;;;;4147839;28;20460;-61
2023/12/21 08:01:31;;;;;;;74.85;67.90;;;;;;;;;;4147253;28;20137;-62
2023/12/21 08:03:33;;;;;;;75.43;68.32;;;;;;;;;;4147521;28;20050;-61
2023/12/21 08:05:36;;;;;;;73.88;66.93;;;;;;;;;;4147800;28;20050;-62
2023/12/21 08:07:39;;;;;;;65.65;60.25;;;;;;;;;;4147738;28;20073;-62
2023/12/21 08:09:41;;;;;;;183.45;133.57;;;;;;;;;;4162073;28;20041;-62
2023/12/21 08:11:43;;;;;;;117.97;100.38;;;;;;;;;;4164034;28;20079;-62
2023/12/21 08:13:44;;;;;;;72.38;65.97;;;;;;;;;;4164193;28;20567;-62
2023/12/21 08:15:46;;;;;;;55.60;51.80;;;;;;;;;;4163959;28;20144;-62
2023/12/21 08:17:51;;;;;;;53.25;49.97;;;;;;;;;;4164205;28;20052;-61
2023/12/21 08:19:52;;;;;;;48.25;45.60;;;;;;;;;;4164492;28;20041;-62
2023/12/21 08:21:54;;;;;;;50.38;47.28;;;;;;;;;;4148051;28;20038;-62
2023/12/21 08:23:56;;;;;;;47.25;44.05;;;;;;;;;;4147736;28;20485;-62
2023/12/21 08:25:57;;;;;;;45.05;42.70;;;;;;;;;;4147777;28;20121;-62
2023/12/21 08:27:59;;;;;;;58.90;54.37;;;;;;;;;;4147648;28;20080;-62
2023/12/21 08:30:02;;;;;;;58.10;51.58;;;;;;;;;;4147659;28;20038;-62
2023/12/21 08:32:04;;;;;;;52.92;48.13;;;;;;;;;;4147668;28;20046;-62
2023/12/21 08:34:06;;;;;;;47.08;44.10;;;;;;;;;;4147600;28;20124;-62
2023/12/21 08:36:08;;;;;;;44.78;42.28;;;;;;;;;;4147463;28;20072;-62
2023/12/21 08:38:10;;;;;;;40.88;38.78;;;;;;;;;;4147666;28;20038;-62
2023/12/21 08:40:13;;;;;;;46.55;43.67;;;;;;;;;;4147626;28;20496;-62
2023/12/21 08:42:15;;;;;;;48.70;44.95;;;;;;;;;;4147638;28;20046;-62
2023/12/21 08:44:17;;;;;;;55.10;50.63;;;;;;;;;;4130158;28;20062;-62
2023/12/21 08:46:19;;;;;;;60.45;55.47;;;;;;;;;;4147393;28;20054;-62
2023/12/21 08:48:21;;;;;;;51.45;48.15;;;;;;;;;;4147669;28;20042;-62
2023/12/21 08:50:23;;;;;;;46.03;43.13;;;;;;;;;;4147330;28;20050;-62
2023/12/21 08:52:24;;;;;;;55.00;50.83;;;;;;;;;;4147361;28;20126;-62
2023/12/21 08:54:27;;;;;;;60.13;55.97;;;;;;;;;;4147354;28;20120;-59
2023/12/21 08:56:30;;;;;;;64.18;58.33;;;;;;;;;;4147785;28;20042;-62
2023/12/21 08:58:32;;;;;;;60.40;54.70;;;;;;;;;;4147514;28;20054;-61
2023/12/21 09:00:34;;;;;;;56.60;51.97;;;;;;;;;;4147204;28;20402;-62
2023/12/21 09:02:36;;;;;;;56.03;51.42;;;;;;;;;;4147099;28;20319;-62
2023/12/21 09:04:37;;;;;;;58.20;53.57;;;;;;;;;;4147418;28;20498;-62
2023/12/21 09:06:39;;;;;;;59.65;55.15;;;;;;;;;;4150426;28;20037;-62
2023/12/21 09:08:40;;;;;;;57.13;52.77;;;;;;;;;;4156403;28;20068;-62
2023/12/21 09:10:42;;;;;;;59.30;54.90;;;;;;;;;;4166659;28;20412;-63
2023/12/21 09:12:43;;;;;;;54.95;50.15;;;;;;;;;;4167247;28;20042;-63
2023/12/21 09:14:46;;;;;;;58.45;53.67;;;;;;;;;;4166546;28;20045;-62
2023/12/21 09:16:48;;;;;;;63.17;56.90;;;;;;;;;;4162288;28;20030;-62
2023/12/21 09:18:52;;;;;;;;;;;;;;;;;;4150715;28;20046;-62
2023/12/21 09:20:53;;;;;;;69.32;62.80;;;;;;;;;;4150429;28;19925;-62
2023/12/21 09:22:55;;;;;;;66.75;60.40;;;;;;;;;;4150297;28;20560;-62
2023/12/21 09:24:57;;;;;;;58.78;53.30;;;;;;;;;;4150256;28;20046;-62
2023/12/21 09:26:59;;;;;;;55.10;51.13;;;;;;;;;;4150130;28;20113;-62
2023/12/21 09:29:03;;;;;;;59.28;54.85;;;;;;;;;;4150140;28;20033;-62
2023/12/21 09:31:05;;;;;;;57.60;52.75;;;;;;;;;;4150066;28;20046;-62
2023/12/21 09:33:07;;;;;;;50.13;46.00;;;;;;;;;;4150195;28;20073;-62
2023/12/21 09:35:09;;;;;;;54.63;50.50;;;;;;;;;;4150125;28;20045;-62
2023/12/21 09:37:11;;;;;;;;;;;;;;;;;;4150710;28;20120;-61
2023/12/21 09:39:13;;;;;;;50.28;46.15;;;;;;;;;;4150131;28;19925;-62
2023/12/21 09:41:14;;;;;;;52.05;47.78;;;;;;;;;;4149914;28;20041;-63
2023/12/21 09:43:17;;;;;;;55.22;50.50;;;;;;;;;;4150093;28;20052;-63
2023/12/21 09:45:20;;;;;;;50.28;46.47;;;;;;;;;;4150277;28;20049;-63
2023/12/21 09:47:25;;;;;;;40.70;38.10;;;;;;;;;;4149850;28;20042;-63
2023/12/21 09:49:28;;;;;;;39.85;37.50;;;;;;;;;;4149850;28;20517;-63
2023/12/21 09:51:31;;;;;;;40.90;38.00;;;;;;;;;;4149646;28;20516;-64
2023/12/21 09:53:33;;;;;;;42.70;40.22;;;;;;;;;;4149780;28;20073;-64
2023/12/21 09:55:35;;;;;;;;;;;;;;;;;;4150095;28;20444;-63
2023/12/21 09:57:37;;;;;;;49.88;46.13;;;;;;;;;;4149983;28;19927;-64
2023/12/21 09:59:39;;;;;;;48.70;44.63;;;;;;;;;;4149683;28;20474;-64
2023/12/21 10:01:41;;;;;;;40.83;38.60;;;;;;;;;;4149358;28;20117;-64
2023/12/21 10:03:47;;;;;;;40.25;37.63;;;;;;;;;;4149683;28;20277;-63
2023/12/21 10:05:48;;;;;;;38.70;36.17;;;;;;;;;;4149725;28;20042;-64
2023/12/21 10:07:50;;;;;;;36.80;34.70;;;;;;;;;;4149628;28;20074;-64
2023/12/21 10:09:52;;;;;;;46.25;42.95;;;;;;;;;;4165156;28;20406;-64
2023/12/21 10:11:53;;;;;;;40.75;38.05;;;;;;;;;;4165807;28;20424;-64
2023/12/21 10:13:57;;;;;;;37.90;35.55;;;;;;;;;;4136386;28;20038;-64
2023/12/21 10:15:59;;;;;;;35.75;34.08;;;;;;;;;;4149237;28;20485;-63
2023/12/21 10:18:04;;;;;;;39.25;37.05;;;;;;;;;;4148679;28;20045;-63
2023/12/21 10:20:06;;;;;;;35.40;33.38;;;;;;;;;;4149277;28;20045;-64
2023/12/21 10:22:09;;;;;;;42.30;39.28;;;;;;;;;;4149216;28;20046;-63
2023/12/21 10:24:10;;;;;;;45.35;42.28;;;;;;;;;;4149318;28;20069;-63
2023/12/21 10:26:12;;;;;;;41.95;38.65;;;;;;;;;;4149260;28;20073;-63
2023/12/21 10:28:14;;;;;;;40.95;37.80;;;;;;;;;;4149311;28;20073;-63
2023/12/21 10:30:19;;;;;;;35.35;33.38;;;;;;;;;;4149238;28;20103;-63
2023/12/21 10:32:21;;;;;;;37.20;35.15;;;;;;;;;;4149175;28;20046;-63
2023/12/21 10:34:22;;;;;;;35.35;33.60;;;;;;;;;;4149419;28;20041;-63
2023/12/21 10:36:26;;;;;;;37.30;35.40;;;;;;;;;;4149016;28;20033;-63
2023/12/21 10:38:27;;;;;;;36.38;34.45;;;;;;;;;;4140427;28;20046;-63
2023/12/21 10:40:29;;;;;;;36.08;34.08;;;;;;;;;;4132734;28;20038;-63
2023/12/21 10:42:31;;;;;;;34.80;32.87;;;;;;;;;;4136231;28;20493;-63
2023/12/21 10:44:33;;;;;;;34.40;32.67;;;;;;;;;;4144478;28;20057;-63
2023/12/21 10:46:35;;;;;;;39.37;36.80;;;;;;;;;;4142646;28;20285;-63
2023/12/21 10:48:38;;;;;;;35.10;33.30;;;;;;;;;;4145761;28;20787;-64
2023/12/21 10:50:40;;;;;;;36.45;34.33;;;;;;;;;;4142704;28;20042;-63
2023/12/21 10:52:44;;;;;;;39.03;36.00;;;;;;;;;;4145616;28;20037;-63
2023/12/21 10:54:46;;;;;;;39.08;36.65;;;;;;;;;;4140664;28;20409;-63
2023/12/21 10:56:48;;;;;;;38.10;35.38;;;;;;;;;;4142611;28;20030;-63
2023/12/21 10:58:52;;;;;;;35.05;32.90;;;;;;;;;;4140158;28;20042;-63
2023/12/21 11:00:55;;;;;;;35.50;33.05;;;;;;;;;;4138155;28;20445;-63
2023/12/21 11:02:57;;;;;;;37.13;34.50;;;;;;;;;;4136498;28;20116;-63
2023/12/21 11:04:59;;;;;;;38.47;35.67;;;;;;;;;;4134310;28;20466;-63
2023/12/21 11:07:02;;;;;;;40.45;37.22;;;;;;;;;;4148689;28;20048;-63
2023/12/21 11:09:06;;;;;;;38.03;35.63;;;;;;;;;;4146574;28;20045;-63
2023/12/21 11:11:07;;;;;;;32.53;30.40;;;;;;;;;;4148347;28;20042;-63
2023/12/21 11:13:09;;;;;;;30.17;28.27;;;;;;;;;;4144364;28;20038;-63
2023/12/21 11:15:11;;;;;;;33.07;31.07;;;;;;;;;;4139449;28;20502;-63
2023/12/21 11:17:13;;;;;;;;;;;;;;;;;;4144902;28;20048;-63
2023/12/21 11:19:17;;;;;;;38.33;35.60;;;;;;;;;;4141013;28;20019;-63
2023/12/21 11:21:21;;;;;;;33.25;31.15;;;;;;;;;;4148256;28;20038;-63
2023/12/21 11:23:23;;;;;;;31.13;29.48;;;;;;;;;;4140380;28;20034;-63
2023/12/21 11:25:24;;;;;;;30.27;28.77;;;;;;;;;;4142484;28;20417;-63
2023/12/21 11:27:26;;;;;;;28.60;27.17;;;;;;;;;;4136361;28;20068;-63
2023/12/21 11:29:28;;;;;;;28.90;27.08;;;;;;;;;;4137896;28;20121;-63
2023/12/21 11:31:39;;;;;;;29.92;28.25;;;;;;;;;;4132541;28;20050;-63
2023/12/21 11:33:41;;;;;;;30.98;29.33;;;;;;;;;;4148225;28;20041;-63
2023/12/21 11:35:51;;;;;;;30.23;28.17;;;;;;;;;;4146489;28;20452;-63
2023/12/21 11:37:57;;;;;;;28.88;27.20;;;;;;;;;;4148313;28;20065;-63
2023/12/21 11:40:04;;;;;;;25.98;24.75;;;;;;;;;;4138259;28;20054;-63
2023/12/21 11:42:08;;;;;;;24.38;23.05;;;;;;;;;;4138226;28;20038;-63
2023/12/21 11:44:11;;;;;;;24.35;23.38;;;;;;;;;;4148059;28;20033;-62
2023/12/21 11:46:14;;;;;;;23.58;22.42;;;;;;;;;;4140863;28;20452;-63
2023/12/21 11:48:19;;;;;;;20.50;19.80;;;;;;;;;;4138738;28;20042;-63
2023/12/21 11:50:23;;;;;;;20.95;19.80;;;;;;;;;;4142262;28;20048;-63
2023/12/21 11:52:24;;;;;;;22.00;21.30;;;;;;;;;;4147895;28;20038;-63
2023/12/21 11:54:26;;;;;;;20.43;19.90;;;;;;;;;;4145487;28;20133;-62